Arthur — LDMV — position and weather

sailwx.info

Track history (hours):
 
Tides and Currents Weather Stations Pressure Air Temp Water Temp Dewpoint Dewpoint Depression Visibility Wind Speed Wind Dir Waves Ship Positions

Arthur

Last reported at 2018-Jun-20 16:53 UTC. Time now 2018-Jun-21 08:45 UTC.
Position N 68°54' E 017°27'.

Length 24 m; draft 2.4 m.

Type: Dredging. MMSI: 257750600.

Date/timePositionNaut miles runAvg speedWind from/ knotsBaromVisibWave heightAir tempDewpointWater temp
2018-Jun-20 16:53N 68°54' E 017°27'4 9.0
2018-Jun-20 16:30N 68°57' E 017°27'4 7.1
2018-Jun-20 16:00N 69°01' E 017°26'0 0.9
2018-Jun-20 15:30N 69°00' E 017°27'0 0.0
2018-Jun-20 15:00N 69°00' E 017°27'0 0.0
2018-Jun-20 14:30N 69°00' E 017°27'0 0.0
2018-Jun-20 14:00N 69°00' E 017°27'0 0.0
2018-Jun-20 13:30N 69°00' E 017°27'0 0.0
2018-Jun-20 13:00N 69°00' E 017°27'3 6.6
2018-Jun-20 12:30N 68°58' E 017°19'5 9.3
2018-Jun-20 11:59N 68°57' E 017°07'  
Track history (hours):
 
Tides and Currents Weather Stations Pressure Air Temp Water Temp Dewpoint Dewpoint Depression Visibility Wind Speed Wind Dir Waves Ship Positions

Arthur

Last reported at 2018-Jun-20 16:53 UTC. Time now 2018-Jun-21 08:45 UTC.
Position N 68°54' E 017°27'.

Length 24 m; draft 2.4 m.

Type: Dredging. MMSI: 257750600.

Date/timePositionNaut miles runAvg speedWind from/ knotsBaromVisibWave heightAir tempDewpointWater temp
2018-Jun-20 16:53N 68°54' E 017°27'4 9.0
2018-Jun-20 16:30N 68°57' E 017°27'4 7.1
2018-Jun-20 16:00N 69°01' E 017°26'0 0.9
2018-Jun-20 15:30N 69°00' E 017°27'0 0.0
2018-Jun-20 15:00N 69°00' E 017°27'0 0.0
2018-Jun-20 14:30N 69°00' E 017°27'0 0.0
2018-Jun-20 14:00N 69°00' E 017°27'0 0.0
2018-Jun-20 13:30N 69°00' E 017°27'0 0.0
2018-Jun-20 13:00N 69°00' E 017°27'3 6.6
2018-Jun-20 12:30N 68°58' E 017°19'5 9.3
2018-Jun-20 11:59N 68°57' E 017°07'  

Dump ship's entire track history